createdAt,value
2023-05-01T00:01:08.168Z,59.14
2023-05-01T00:03:35.130Z,59.12
2023-05-01T00:06:04.882Z,58.90
2023-05-01T00:08:32.386Z,59.09
2023-05-01T00:11:03.577Z,59.75
2023-05-01T00:13:30.462Z,59.54
2023-05-01T00:15:57.221Z,59.60
2023-05-01T00:18:23.666Z,59.73
2023-05-01T00:20:50.120Z,59.66
2023-05-01T00:23:16.512Z,59.68
2023-05-01T00:25:42.918Z,59.71
2023-05-01T00:28:09.407Z,59.68
2023-05-01T00:30:35.839Z,59.98
2023-05-01T00:33:02.359Z,59.81
2023-05-01T00:35:30.091Z,60.06
2023-05-01T00:37:56.694Z,59.96
2023-05-01T00:40:23.100Z,60.19
2023-05-01T00:42:49.568Z,60.14
2023-05-01T00:45:16.088Z,60.11
2023-05-01T00:47:42.723Z,60.24
2023-05-01T00:50:09.769Z,60.29
2023-05-01T00:52:36.211Z,60.41
2023-05-01T00:55:05.298Z,60.41
2023-05-01T00:57:32.579Z,60.56
2023-05-01T00:59:59.185Z,60.37
2023-05-01T01:02:27.162Z,60.41
2023-05-01T01:04:54.056Z,60.46
2023-05-01T01:07:36.256Z,60.51
2023-05-01T01:10:18.421Z,60.74
2023-05-01T01:12:56.408Z,60.92
2023-05-01T01:15:34.937Z,60.68
2023-05-01T01:18:18.094Z,60.87
2023-05-01T01:21:14.174Z,60.65
2023-05-01T01:23:59.490Z,60.64
2023-05-01T01:27:02.421Z,60.74
2023-05-01T01:29:37.961Z,60.42
2023-05-01T01:32:31.679Z,61.11
2023-05-01T01:35:18.442Z,60.95
2023-05-01T01:37:59.034Z,61.26
2023-05-01T01:40:34.644Z,61.19
2023-05-01T01:43:10.512Z,61.47
2023-05-01T01:45:43.639Z,61.42
2023-05-01T01:48:14.715Z,61.31
2023-05-01T01:50:43.702Z,61.56
2023-05-01T01:53:13.267Z,61.42
2023-05-01T01:55:43.421Z,61.51
2023-05-01T01:58:11.899Z,61.25
2023-05-01T02:00:41.904Z,61.47
2023-05-01T02:03:10.462Z,61.58
2023-05-01T02:05:40.426Z,61.89
2023-05-01T02:08:08.782Z,61.85
2023-05-01T02:10:37.073Z,61.92
2023-05-01T02:13:04.272Z,61.68
2023-05-01T02:15:32.701Z,61.76
2023-05-01T02:18:03.632Z,61.82
2023-05-01T02:20:30.508Z,61.72
2023-05-01T02:22:58.684Z,61.81
2023-05-01T02:25:29.100Z,61.70
2023-05-01T02:28:00.121Z,61.73
2023-05-01T02:30:26.591Z,61.71
2023-05-01T02:32:53.068Z,61.37
2023-05-01T02:35:19.548Z,61.32
2023-05-01T02:37:46.328Z,61.45
2023-05-01T02:40:15.116Z,61.43
2023-05-01T02:42:44.934Z,61.73
2023-05-01T02:45:19.163Z,61.58
2023-05-01T02:47:50.807Z,61.51
2023-05-01T02:50:18.056Z,61.39
2023-05-01T02:52:45.346Z,61.42
2023-05-01T02:55:11.913Z,61.54
2023-05-01T02:57:38.829Z,61.50
2023-05-01T03:00:09.327Z,61.49
2023-05-01T03:02:35.786Z,61.26
2023-05-01T03:05:02.240Z,61.17
2023-05-01T03:07:34.979Z,61.41
2023-05-01T03:10:05.608Z,61.38
2023-05-01T03:12:32.038Z,61.36
2023-05-01T03:14:58.517Z,61.05
2023-05-01T03:17:25.025Z,60.79
2023-05-01T03:19:51.619Z,60.81
2023-05-01T03:22:18.359Z,60.59
2023-05-01T03:24:44.903Z,60.62
2023-05-01T03:27:11.662Z,60.39
2023-05-01T03:29:38.215Z,60.45
2023-05-01T03:32:05.609Z,60.54
2023-05-01T03:34:32.297Z,60.44
2023-05-01T03:36:58.705Z,60.23
2023-05-01T03:39:25.286Z,60.37
2023-05-01T03:41:51.685Z,60.45
2023-05-01T03:44:18.097Z,60.73
2023-05-01T03:46:44.680Z,60.72
2023-05-01T03:49:11.178Z,60.76
2023-05-01T03:51:37.674Z,61.26
2023-05-01T03:54:04.072Z,61.26
2023-05-01T03:56:35.506Z,61.54
2023-05-01T03:59:02.406Z,61.53
2023-05-01T04:01:28.775Z,61.54
2023-05-01T04:03:55.496Z,61.68
2023-05-01T04:06:22.896Z,61.61
2023-05-01T04:08:49.332Z,62.04
2023-05-01T04:11:15.749Z,61.90
2023-05-01T04:13:42.229Z,61.92
2023-05-01T04:16:08.701Z,62.53
2023-05-01T04:18:35.499Z,66.35
2023-05-01T04:21:02.570Z,65.63
2023-05-01T04:23:29.013Z,65.28
2023-05-01T04:25:55.401Z,64.09
2023-05-01T04:28:21.879Z,62.99
2023-05-01T04:30:48.366Z,63.11
2023-05-01T04:33:14.768Z,62.16
2023-05-01T04:35:41.637Z,61.63
2023-05-01T04:38:10.445Z,60.48
2023-05-01T04:40:36.904Z,60.13
2023-05-01T04:43:03.403Z,59.33
2023-05-01T04:45:29.838Z,59.18
2023-05-01T04:47:56.281Z,59.72
2023-05-01T04:50:22.837Z,58.78
2023-05-01T04:52:49.664Z,58.47
2023-05-01T04:55:16.520Z,58.02
2023-05-01T04:57:42.932Z,57.91
2023-05-01T05:00:09.815Z,57.53
2023-05-01T05:02:36.426Z,57.08
2023-05-01T05:05:03.008Z,57.19
2023-05-01T05:07:29.414Z,56.68
2023-05-01T05:09:56.167Z,56.43
2023-05-01T05:12:22.777Z,56.55
2023-05-01T05:14:49.249Z,56.23
2023-05-01T05:17:15.664Z,56.24
2023-05-01T05:19:42.061Z,55.87
2023-05-01T05:22:08.564Z,55.98
2023-05-01T05:24:34.954Z,55.45
2023-05-01T05:27:01.353Z,56.01
2023-05-01T05:29:27.783Z,55.66
2023-05-01T05:31:54.242Z,55.82
2023-05-01T05:34:20.808Z,56.00
2023-05-01T05:36:47.233Z,55.71
2023-05-01T05:39:13.863Z,54.17
2023-05-01T05:41:40.349Z,55.57
2023-05-01T05:44:06.996Z,55.74
2023-05-01T05:46:33.591Z,55.32
2023-05-01T05:49:00.281Z,54.25
2023-05-01T05:51:26.681Z,54.30
2023-05-01T05:53:53.063Z,54.92
2023-05-01T05:56:19.457Z,55.11
2023-05-01T05:58:45.873Z,55.78
2023-05-01T06:01:12.347Z,55.98
2023-05-01T06:03:38.910Z,56.48
2023-05-01T06:06:06.112Z,56.52
2023-05-01T06:08:32.746Z,56.61
2023-05-01T06:10:59.302Z,56.75
2023-05-01T06:13:25.807Z,56.97
2023-05-01T06:15:52.621Z,57.08
2023-05-01T06:18:19.099Z,57.21
2023-05-01T06:20:47.158Z,56.94
2023-05-01T06:23:13.768Z,57.19
2023-05-01T06:25:40.595Z,57.51
2023-05-01T06:28:07.195Z,57.25
2023-05-01T06:30:33.604Z,57.76
2023-05-01T06:33:00.208Z,58.26
2023-05-01T06:35:28.114Z,58.61
2023-05-01T06:37:56.021Z,58.45
2023-05-01T06:40:22.529Z,58.09
2023-05-01T06:42:49.127Z,58.10
2023-05-01T06:45:15.727Z,57.58
2023-05-01T06:47:42.333Z,57.78
2023-05-01T06:50:09.601Z,57.87
2023-05-01T06:52:36.019Z,57.62
2023-05-01T06:55:02.509Z,57.23
2023-05-01T06:57:28.937Z,57.70
2023-05-01T06:59:55.654Z,57.59
2023-05-01T07:02:22.388Z,57.79
2023-05-01T07:04:48.860Z,57.75
2023-05-01T07:07:15.478Z,57.71
2023-05-01T07:09:41.879Z,57.42
2023-05-01T07:12:08.750Z,57.67
2023-05-01T07:14:35.870Z,57.21
2023-05-01T07:17:02.699Z,57.06
2023-05-01T07:19:29.234Z,56.80
2023-05-01T07:21:55.756Z,57.00
2023-05-01T07:24:22.469Z,57.09
2023-05-01T07:26:48.959Z,56.68
2023-05-01T07:29:16.454Z,56.69
2023-05-01T07:31:43.581Z,56.82
2023-05-01T07:34:10.224Z,56.50
2023-05-01T07:36:36.806Z,56.76
2023-05-01T07:39:04.106Z,56.50
2023-05-01T07:41:31.552Z,56.43
2023-05-01T07:44:00.869Z,56.68
2023-05-01T07:46:27.533Z,56.10
2023-05-01T07:48:54.483Z,56.24
2023-05-01T07:51:21.069Z,56.25
2023-05-01T07:53:47.963Z,55.90
2023-05-01T07:56:14.371Z,55.73
2023-05-01T07:58:44.001Z,55.39
2023-05-01T08:01:10.648Z,55.64
2023-05-01T08:03:37.366Z,55.91
2023-05-01T08:06:04.171Z,56.00
2023-05-01T08:08:30.740Z,55.91
2023-05-01T08:10:57.141Z,55.74
2023-05-01T08:13:23.557Z,55.52
2023-05-01T08:15:50.141Z,55.22
2023-05-01T08:18:20.498Z,55.17
2023-05-01T08:20:50.751Z,55.06
2023-05-01T08:23:17.693Z,54.48
2023-05-01T08:25:46.889Z,54.22
2023-05-01T08:28:14.941Z,54.03
2023-05-01T08:30:41.504Z,54.15
2023-05-01T08:33:08.264Z,54.11
2023-05-01T08:35:34.775Z,54.33
2023-05-01T08:38:01.724Z,53.70
2023-05-01T08:40:33.507Z,53.72
2023-05-01T08:43:01.712Z,52.64
2023-05-01T08:45:32.446Z,52.25
2023-05-01T08:48:01.682Z,53.09
2023-05-01T08:50:28.774Z,52.65
2023-05-01T08:52:58.540Z,52.38
2023-05-01T08:55:26.741Z,51.66
2023-05-01T08:57:54.206Z,51.74
2023-05-01T09:00:21.457Z,51.09
2023-05-01T09:02:49.833Z,50.31
2023-05-01T09:05:17.730Z,49.44
2023-05-01T09:07:46.036Z,49.52
2023-05-01T09:10:14.198Z,49.49
2023-05-01T09:12:41.956Z,48.88
2023-05-01T09:15:09.779Z,48.44
2023-05-01T09:17:36.986Z,48.51
2023-05-01T09:20:06.343Z,48.62
2023-05-01T09:22:33.721Z,48.25
2023-05-01T09:25:00.724Z,48.14
2023-05-01T09:27:28.055Z,49.84
2023-05-01T09:29:54.754Z,48.95
2023-05-01T09:32:30.567Z,47.31
2023-05-01T09:35:11.464Z,47.86
2023-05-01T09:37:37.963Z,47.85
2023-05-01T09:40:06.504Z,47.30
2023-05-01T09:42:34.632Z,47.12
2023-05-01T09:45:02.003Z,46.95
2023-05-01T09:47:31.884Z,46.12
2023-05-01T09:50:00.247Z,45.77
2023-05-01T09:52:28.123Z,46.06
2023-05-01T09:55:13.825Z,46.14
2023-05-01T09:57:40.606Z,46.13
2023-05-01T10:00:08.741Z,46.52
2023-05-01T10:02:35.371Z,46.30
2023-05-01T10:05:02.041Z,46.15
2023-05-01T10:07:29.669Z,46.61
2023-05-01T10:09:59.393Z,46.44
2023-05-01T10:12:29.506Z,46.82
2023-05-01T10:14:57.779Z,46.55
2023-05-01T10:17:24.263Z,46.20
2023-05-01T10:19:51.498Z,46.56
2023-05-01T10:22:18.279Z,46.71
2023-05-01T10:24:46.122Z,46.88
2023-05-01T10:27:13.421Z,46.62
2023-05-01T10:29:41.909Z,47.03
2023-05-01T10:32:09.427Z,46.90
2023-05-01T10:34:40.266Z,46.77
2023-05-01T10:37:13.959Z,46.74
2023-05-01T10:39:40.662Z,46.42
2023-05-01T10:42:14.774Z,46.55
2023-05-01T10:44:42.728Z,46.20
2023-05-01T10:47:24.391Z,46.68
2023-05-01T10:50:09.790Z,46.75
2023-05-01T10:53:14.290Z,46.59
2023-05-01T10:55:45.939Z,47.24
2023-05-01T10:58:14.018Z,47.78
2023-05-01T11:00:41.033Z,48.15
2023-05-01T11:03:22.728Z,48.43
2023-05-01T11:06:03.290Z,48.60
2023-05-01T11:08:34.946Z,49.13
2023-05-01T11:11:19.477Z,49.16
2023-05-01T11:13:59.824Z,49.14
2023-05-01T11:16:41.943Z,50.30
2023-05-01T11:19:23.533Z,50.21
2023-05-01T11:21:50.769Z,50.36
2023-05-01T11:24:20.188Z,50.48
2023-05-01T11:26:47.800Z,49.76
2023-05-01T11:29:14.189Z,50.15
2023-05-01T11:31:41.566Z,50.12
2023-05-01T11:34:08.390Z,50.24
2023-05-01T11:36:51.260Z,50.65
2023-05-01T11:39:18.420Z,51.13
2023-05-01T11:41:45.974Z,51.89
2023-05-01T11:44:16.221Z,52.82
2023-05-01T11:46:42.720Z,54.64
2023-05-01T11:49:09.546Z,54.73
2023-05-01T11:51:36.016Z,55.21
2023-05-01T11:54:04.430Z,55.34
2023-05-01T11:56:31.885Z,55.34
2023-05-01T11:59:16.930Z,56.04
2023-05-01T12:01:45.553Z,56.11
2023-05-01T12:04:13.816Z,55.43
2023-05-01T12:06:46.039Z,56.25
2023-05-01T12:09:17.462Z,55.87
2023-05-01T12:11:44.140Z,56.93
2023-05-01T12:14:11.202Z,57.14
2023-05-01T12:16:40.298Z,57.40
2023-05-01T12:19:07.517Z,58.67
2023-05-01T12:21:35.173Z,58.49
2023-05-01T12:24:16.924Z,59.78
2023-05-01T12:26:45.356Z,58.90
2023-05-01T12:29:12.049Z,59.60
2023-05-01T12:31:49.942Z,60.57
2023-05-01T12:34:16.636Z,59.92
2023-05-01T12:36:53.299Z,62.13
2023-05-01T12:39:20.160Z,60.89
2023-05-01T12:41:48.688Z,61.63
2023-05-01T12:44:25.876Z,61.55
2023-05-01T12:46:55.851Z,61.39
2023-05-01T12:49:23.508Z,60.86
2023-05-01T12:51:52.099Z,61.27
2023-05-01T12:54:23.010Z,60.52
2023-05-01T12:56:53.114Z,61.02
2023-05-01T12:59:24.756Z,60.92
2023-05-01T13:02:03.347Z,59.88
2023-05-01T13:04:30.073Z,60.28
2023-05-01T13:06:57.700Z,58.97
2023-05-01T13:09:27.284Z,59.55
2023-05-01T13:12:10.594Z,57.22
2023-05-01T13:14:41.874Z,57.82
2023-05-01T13:17:09.828Z,56.23
2023-05-01T13:19:37.247Z,54.86
2023-05-01T13:22:04.639Z,54.32
2023-05-01T13:24:39.809Z,53.62
2023-05-01T13:27:11.409Z,50.88
2023-05-01T13:29:45.663Z,50.28
2023-05-01T13:32:12.226Z,49.03
2023-05-01T13:34:42.645Z,47.20
2023-05-01T13:37:13.792Z,46.38
2023-05-01T13:39:42.634Z,45.48
2023-05-01T13:42:11.842Z,45.07
2023-05-01T13:44:49.934Z,42.75
2023-05-01T13:47:18.242Z,41.40
2023-05-01T13:49:45.574Z,39.61
2023-05-01T13:52:16.000Z,38.87
2023-05-01T13:54:42.732Z,38.35
2023-05-01T13:57:09.897Z,38.99
2023-05-01T13:59:39.504Z,37.78
2023-05-01T14:02:29.639Z,36.53
2023-05-01T14:04:58.343Z,35.48
2023-05-01T14:07:26.821Z,36.02
2023-05-01T14:09:56.047Z,34.09
2023-05-01T14:12:26.737Z,34.40
2023-05-01T14:14:53.473Z,34.42
2023-05-01T14:17:25.498Z,34.64
2023-05-01T14:19:52.686Z,34.90
2023-05-01T14:22:19.102Z,34.77
2023-05-01T14:24:46.005Z,35.46
2023-05-01T14:27:14.616Z,35.50
2023-05-01T14:29:43.810Z,35.83
2023-05-01T14:32:10.975Z,36.42
2023-05-01T14:34:41.587Z,36.72
2023-05-01T14:37:09.780Z,37.54
2023-05-01T14:39:36.178Z,37.75
2023-05-01T14:42:04.366Z,38.20
2023-05-01T14:44:30.838Z,38.57
2023-05-01T14:46:58.738Z,39.39
2023-05-01T14:49:25.738Z,39.98
2023-05-01T14:51:53.771Z,41.39
2023-05-01T14:54:21.125Z,42.82
2023-05-01T14:56:48.543Z,43.79
2023-05-01T14:59:15.994Z,44.70
2023-05-01T15:01:43.943Z,45.46
2023-05-01T15:04:11.847Z,45.79
2023-05-01T15:06:38.560Z,46.01
2023-05-01T15:09:05.383Z,46.33
2023-05-01T15:11:31.980Z,46.49
2023-05-01T15:13:58.400Z,46.78
2023-05-01T15:16:24.858Z,47.03
2023-05-01T15:18:51.694Z,47.07
2023-05-01T15:21:18.379Z,46.54
2023-05-01T15:23:46.108Z,47.00
2023-05-01T15:26:12.519Z,47.44
2023-05-01T15:28:39.050Z,47.24
2023-05-01T15:31:05.944Z,47.02
2023-05-01T15:33:32.420Z,46.91
2023-05-01T15:35:58.849Z,47.32
2023-05-01T15:38:26.085Z,46.88
2023-05-01T15:40:52.549Z,46.12
2023-05-01T15:43:19.120Z,46.30
2023-05-01T15:45:45.799Z,46.34
2023-05-01T15:48:12.415Z,46.44
2023-05-01T15:50:38.986Z,46.85
2023-05-01T15:53:05.504Z,47.21
2023-05-01T15:55:32.138Z,47.75
2023-05-01T15:57:58.658Z,48.20
2023-05-01T16:00:25.510Z,48.65
2023-05-01T16:02:52.038Z,48.77
2023-05-01T16:05:21.452Z,49.70
2023-05-01T16:07:53.544Z,49.58
2023-05-01T16:10:20.140Z,50.20
2023-05-01T16:12:46.638Z,50.23
2023-05-01T16:15:14.604Z,50.42
2023-05-01T16:17:45.118Z,50.64
2023-05-01T16:20:13.088Z,50.98
2023-05-01T16:22:41.436Z,52.03
2023-05-01T16:25:09.788Z,52.29
2023-05-01T16:27:41.143Z,52.01
2023-05-01T16:30:09.021Z,51.80
2023-05-01T16:32:35.797Z,51.65
2023-05-01T16:35:03.642Z,51.67
2023-05-01T16:37:30.125Z,51.28
2023-05-01T16:39:59.171Z,51.16
2023-05-01T16:42:25.752Z,51.47
2023-05-01T16:44:52.484Z,51.60
2023-05-01T16:47:19.074Z,51.29
2023-05-01T16:49:46.682Z,50.71
2023-05-01T16:52:15.544Z,50.74
2023-05-01T16:54:42.043Z,50.70
2023-05-01T16:57:08.498Z,50.80
2023-05-01T16:59:35.107Z,50.90
2023-05-01T17:02:01.585Z,50.19
2023-05-01T17:04:28.404Z,49.78
2023-05-01T17:06:56.118Z,49.22
2023-05-01T17:09:22.789Z,48.90
2023-05-01T17:11:49.277Z,48.83
2023-05-01T17:14:15.673Z,49.07
2023-05-01T17:16:42.155Z,49.61
2023-05-01T17:19:09.875Z,49.78
2023-05-01T17:21:36.513Z,50.05
2023-05-01T17:24:03.144Z,50.07
2023-05-01T17:26:29.564Z,49.89
2023-05-01T17:28:56.062Z,49.77
2023-05-01T17:31:22.819Z,50.00
2023-05-01T17:33:49.434Z,49.99
2023-05-01T17:36:15.929Z,50.76
2023-05-01T17:38:42.341Z,51.16
2023-05-01T17:41:08.756Z,51.32
2023-05-01T17:43:35.160Z,51.03
2023-05-01T17:46:01.695Z,51.20
2023-05-01T17:48:28.185Z,51.57
2023-05-01T17:50:55.732Z,52.08
2023-05-01T17:53:23.288Z,52.44
2023-05-01T17:55:49.857Z,52.86
2023-05-01T17:58:16.396Z,53.45
2023-05-01T18:00:42.861Z,54.19
2023-05-01T18:03:09.468Z,54.73
2023-05-01T18:05:36.002Z,55.75
2023-05-01T18:08:02.400Z,55.78
2023-05-01T18:10:31.151Z,55.66
2023-05-01T18:12:58.234Z,55.93
2023-05-01T18:15:24.962Z,56.33
2023-05-01T18:17:51.936Z,56.47
2023-05-01T18:20:18.518Z,56.96
2023-05-01T18:22:45.286Z,57.10
2023-05-01T18:25:12.512Z,57.25
2023-05-01T18:27:41.250Z,57.21
2023-05-01T18:30:08.354Z,57.14
2023-05-01T18:32:46.734Z,57.16
2023-05-01T18:35:15.042Z,57.46
2023-05-01T18:37:42.487Z,57.17
2023-05-01T18:40:09.824Z,57.75
2023-05-01T18:42:36.284Z,57.64
2023-05-01T18:45:03.987Z,57.74
2023-05-01T18:47:32.308Z,58.25
2023-05-01T18:49:59.573Z,58.51
2023-05-01T18:52:26.452Z,58.59
2023-05-01T18:54:52.837Z,58.98
2023-05-01T18:57:19.218Z,59.61
2023-05-01T18:59:45.875Z,60.37
2023-05-01T19:02:12.336Z,60.93
2023-05-01T19:04:55.854Z,62.07
2023-05-01T19:07:23.546Z,62.12
2023-05-01T19:09:49.975Z,61.88
2023-05-01T19:12:16.553Z,61.91
2023-05-01T19:14:43.128Z,62.66
2023-05-01T19:17:09.821Z,62.34
2023-05-01T19:19:36.231Z,62.95
2023-05-01T19:22:02.629Z,62.77
2023-05-01T19:24:29.054Z,63.21
2023-05-01T19:26:55.474Z,63.56
2023-05-01T19:29:21.906Z,63.82
2023-05-01T19:31:48.693Z,64.20
2023-05-01T19:34:15.168Z,64.55
2023-05-01T19:36:41.563Z,64.73
2023-05-01T19:39:07.972Z,64.82
2023-05-01T19:41:34.901Z,65.18
2023-05-01T19:44:01.411Z,65.84
2023-05-01T19:46:27.949Z,65.78
2023-05-01T19:48:54.380Z,66.10
2023-05-01T19:51:20.777Z,66.06
2023-05-01T19:53:47.203Z,66.37
2023-05-01T19:56:13.631Z,66.47
2023-05-01T19:58:40.044Z,66.69
2023-05-01T20:01:09.179Z,66.85
2023-05-01T20:03:35.675Z,66.98
2023-05-01T20:06:02.293Z,66.74
2023-05-01T20:08:28.822Z,67.31
2023-05-01T20:10:56.750Z,67.47
2023-05-01T20:13:23.390Z,67.44
2023-05-01T20:15:51.150Z,67.35
2023-05-01T20:18:18.031Z,67.66
2023-05-01T20:20:44.464Z,67.51
2023-05-01T20:23:15.774Z,68.52
2023-05-01T20:25:42.650Z,69.05
2023-05-01T20:28:11.049Z,69.96
2023-05-01T20:30:39.933Z,69.62
2023-05-01T20:33:07.772Z,69.55
2023-05-01T20:35:34.686Z,69.46
2023-05-01T20:38:01.974Z,69.51
2023-05-01T20:40:29.164Z,69.73
2023-05-01T20:42:56.222Z,69.35
2023-05-01T20:45:22.778Z,69.44
2023-05-01T20:47:49.219Z,69.40
2023-05-01T20:50:17.540Z,69.57
2023-05-01T20:52:44.909Z,69.39
2023-05-01T20:55:11.832Z,69.18
2023-05-01T20:57:40.110Z,68.91
2023-05-01T21:00:07.971Z,67.85
2023-05-01T21:02:39.853Z,67.39
2023-05-01T21:05:10.141Z,67.80
2023-05-01T21:07:40.618Z,68.06
2023-05-01T21:10:09.693Z,67.95
2023-05-01T21:12:36.868Z,68.33
2023-05-01T21:15:04.330Z,67.34
2023-05-01T21:17:35.975Z,66.61
2023-05-01T21:20:06.107Z,66.26
2023-05-01T21:22:32.499Z,66.29
2023-05-01T21:25:00.202Z,66.58
2023-05-01T21:27:27.418Z,67.17
2023-05-01T21:29:59.694Z,67.26
2023-05-01T21:32:32.644Z,67.33
2023-05-01T21:35:03.663Z,67.13
2023-05-01T21:37:30.294Z,67.40
2023-05-01T21:40:01.146Z,67.60
2023-05-01T21:42:34.500Z,67.80
2023-05-01T21:45:06.847Z,67.76
2023-05-01T21:47:42.298Z,68.40
2023-05-01T21:50:12.074Z,68.54
2023-05-01T21:52:39.218Z,68.36
2023-05-01T21:55:10.297Z,68.66
2023-05-01T21:57:38.292Z,68.53
2023-05-01T22:00:09.895Z,68.44
2023-05-01T22:02:40.927Z,68.78
2023-05-01T22:05:08.068Z,68.61
2023-05-01T22:07:37.707Z,68.71
2023-05-01T22:10:04.374Z,68.71
2023-05-01T22:12:30.799Z,68.72
2023-05-01T22:14:57.339Z,69.21
2023-05-01T22:17:26.717Z,69.39
2023-05-01T22:19:53.607Z,69.71
2023-05-01T22:22:20.024Z,69.76
2023-05-01T22:24:46.449Z,69.50
2023-05-01T22:27:13.027Z,69.48
2023-05-01T22:29:39.432Z,69.78
2023-05-01T22:32:05.926Z,69.82
2023-05-01T22:34:32.361Z,69.77
2023-05-01T22:36:58.782Z,70.28
2023-05-01T22:39:25.175Z,69.90
2023-05-01T22:41:51.622Z,70.46
2023-05-01T22:44:18.068Z,70.46
2023-05-01T22:46:44.746Z,70.73
2023-05-01T22:49:11.601Z,71.07
2023-05-01T22:51:38.144Z,70.80
2023-05-01T22:54:04.526Z,71.08
2023-05-01T22:56:30.943Z,71.27
2023-05-01T22:58:57.366Z,71.23
2023-05-01T23:01:23.961Z,71.82
2023-05-01T23:03:50.974Z,71.49
2023-05-01T23:06:18.905Z,72.70
2023-05-01T23:08:45.401Z,71.97
2023-05-01T23:11:15.697Z,72.05
2023-05-01T23:13:47.135Z,72.01
2023-05-01T23:16:17.670Z,72.73
2023-05-01T23:18:45.421Z,72.32
2023-05-01T23:21:13.342Z,72.76
2023-05-01T23:23:44.853Z,73.05
2023-05-01T23:26:23.279Z,73.46
2023-05-01T23:28:49.713Z,74.09
2023-05-01T23:31:26.296Z,73.15
2023-05-01T23:33:54.725Z,73.12
2023-05-01T23:36:21.819Z,73.03
2023-05-01T23:38:48.323Z,73.02
2023-05-01T23:41:15.090Z,73.05
2023-05-01T23:43:42.418Z,73.23
2023-05-01T23:46:09.156Z,73.18
2023-05-01T23:48:36.195Z,73.13
2023-05-01T23:51:02.969Z,73.13
2023-05-01T23:53:29.995Z,72.74
2023-05-01T23:55:56.407Z,72.69
2023-05-01T23:58:23.467Z,72.49
